sensor_id;sensor_type;location;lat;lon;timestamp;pressure;altitude;pressure_sealevel;temperature;humidity
38400;BME280;24180;42.676;23.320;2023-05-24T00:01:30;94585.03;;;13.30;100.00
38400;BME280;24180;42.676;23.320;2023-05-24T00:03:56;94579.38;;;13.27;100.00
38400;BME280;24180;42.676;23.320;2023-05-24T00:06:25;94570.91;;;13.25;100.00
38400;BME280;24180;42.676;23.320;2023-05-24T00:08:52;94569.78;;;13.27;100.00
38400;BME280;24180;42.676;23.320;2023-05-24T00:11:17;94552.41;;;13.11;100.00
38400;BME280;24180;42.676;23.320;2023-05-24T00:13:43;94537.28;;;12.99;100.00
38400;BME280;24180;42.676;23.320;2023-05-24T00:16:08;94539.69;;;13.00;100.00
38400;BME280;24180;42.676;23.320;2023-05-24T00:18:35;94563.91;;;13.09;100.00
38400;BME280;24180;42.676;23.320;2023-05-24T00:21:06;94564.88;;;13.16;100.00
38400;BME280;24180;42.676;23.320;2023-05-24T00:23:33;94557.88;;;13.08;100.00
38400;BME280;24180;42.676;23.320;2023-05-24T00:25:58;94548.00;;;12.88;100.00
38400;BME280;24180;42.676;23.320;2023-05-24T00:28:25;94528.66;;;12.82;100.00
38400;BME280;24180;42.676;23.320;2023-05-24T00:30:51;94530.94;;;12.77;100.00
38400;BME280;24180;42.676;23.320;2023-05-24T00:33:16;94552.88;;;12.91;100.00
38400;BME280;24180;42.676;23.320;2023-05-24T00:35:41;94553.19;;;12.88;100.00
38400;BME280;24180;42.676;23.320;2023-05-24T00:38:07;94516.97;;;12.62;100.00
38400;BME280;24180;42.676;23.320;2023-05-24T00:40:32;94546.69;;;12.68;100.00
38400;BME280;24180;42.676;23.320;2023-05-24T00:42:58;94548.13;;;12.62;100.00
38400;BME280;24180;42.676;23.320;2023-05-24T00:45:23;94539.38;;;12.63;100.00
38400;BME280;24180;42.676;23.320;2023-05-24T00:47:48;94530.56;;;12.56;100.00
38400;BME280;24180;42.676;23.320;2023-05-24T00:50:14;94515.31;;;12.53;100.00
38400;BME280;24180;42.676;23.320;2023-05-24T00:52:41;94550.06;;;12.60;100.00
38400;BME280;24180;42.676;23.320;2023-05-24T00:55:07;94546.16;;;12.56;100.00
38400;BME280;24180;42.676;23.320;2023-05-24T00:57:36;94529.94;;;12.54;100.00
38400;BME280;24180;42.676;23.320;2023-05-24T01:00:05;94548.94;;;12.62;100.00
38400;BME280;24180;42.676;23.320;2023-05-24T01:02:32;94517.25;;;12.27;100.00
38400;BME280;24180;42.676;23.320;2023-05-24T01:04:57;94545.84;;;12.43;100.00
38400;BME280;24180;42.676;23.320;2023-05-24T01:07:32;94513.34;;;12.23;100.00
38400;BME280;24180;42.676;23.320;2023-05-24T01:13:08;94511.88;;;12.36;100.00
38400;BME280;24180;42.676;23.320;2023-05-24T01:18:15;94551.97;;;12.34;100.00
38400;BME280;24180;42.676;23.320;2023-05-24T01:20:41;94529.56;;;12.25;100.00
38400;BME280;24180;42.676;23.320;2023-05-24T01:26:18;94562.00;;;12.29;100.00
38400;BME280;24180;42.676;23.320;2023-05-24T01:28:46;94559.41;;;12.20;100.00
38400;BME280;24180;42.676;23.320;2023-05-24T01:31:14;94564.75;;;12.19;100.00
38400;BME280;24180;42.676;23.320;2023-05-24T01:33:43;94526.91;;;12.00;100.00
38400;BME280;24180;42.676;23.320;2023-05-24T01:36:09;94526.56;;;11.95;100.00
38400;BME280;24180;42.676;23.320;2023-05-24T01:38:36;94547.16;;;11.97;100.00
38400;BME280;24180;42.676;23.320;2023-05-24T01:44:00;94544.53;;;11.89;100.00
38400;BME280;24180;42.676;23.320;2023-05-24T01:46:38;94527.06;;;11.65;100.00
38400;BME280;24180;42.676;23.320;2023-05-24T01:49:17;94555.09;;;11.87;100.00
38400;BME280;24180;42.676;23.320;2023-05-24T01:51:54;94546.59;;;11.77;100.00
38400;BME280;24180;42.676;23.320;2023-05-24T01:54:25;94550.84;;;11.86;100.00
38400;BME280;24180;42.676;23.320;2023-05-24T01:56:54;94550.06;;;11.94;100.00
38400;BME280;24180;42.676;23.320;2023-05-24T01:59:21;94541.31;;;11.95;100.00
38400;BME280;24180;42.676;23.320;2023-05-24T02:01:48;94544.56;;;11.97;100.00
38400;BME280;24180;42.676;23.320;2023-05-24T02:04:15;94522.63;;;11.83;100.00
38400;BME280;24180;42.676;23.320;2023-05-24T02:06:40;94513.19;;;11.74;100.00
38400;BME280;24180;42.676;23.320;2023-05-24T02:09:05;94540.66;;;11.93;100.00
38400;BME280;24180;42.676;23.320;2023-05-24T02:11:31;94553.28;;;11.88;100.00
38400;BME280;24180;42.676;23.320;2023-05-24T02:13:56;94547.13;;;11.89;100.00
38400;BME280;24180;42.676;23.320;2023-05-24T02:16:22;94530.06;;;11.78;100.00
38400;BME280;24180;42.676;23.320;2023-05-24T02:18:51;94509.56;;;11.67;100.00
38400;BME280;24180;42.676;23.320;2023-05-24T02:21:16;94532.03;;;11.84;100.00
38400;BME280;24180;42.676;23.320;2023-05-24T02:23:41;94478.03;;;11.46;100.00
38400;BME280;24180;42.676;23.320;2023-05-24T02:26:07;94504.38;;;11.67;100.00
38400;BME280;24180;42.676;23.320;2023-05-24T02:28:35;94484.06;;;11.54;100.00
38400;BME280;24180;42.676;23.320;2023-05-24T02:31:01;94497.56;;;11.66;100.00
38400;BME280;24180;42.676;23.320;2023-05-24T02:33:26;94533.31;;;11.80;100.00
38400;BME280;24180;42.676;23.320;2023-05-24T02:35:54;94532.34;;;11.81;100.00
38400;BME280;24180;42.676;23.320;2023-05-24T02:38:21;94520.91;;;11.66;100.00
38400;BME280;24180;42.676;23.320;2023-05-24T02:40:46;94508.69;;;11.50;100.00
38400;BME280;24180;42.676;23.320;2023-05-24T02:43:12;94521.56;;;11.68;100.00
38400;BME280;24180;42.676;23.320;2023-05-24T02:45:37;94502.63;;;11.42;100.00
38400;BME280;24180;42.676;23.320;2023-05-24T02:48:03;94542.31;;;11.68;100.00
38400;BME280;24180;42.676;23.320;2023-05-24T02:50:28;94528.66;;;11.58;100.00
38400;BME280;24180;42.676;23.320;2023-05-24T02:52:54;94503.63;;;11.49;100.00
38400;BME280;24180;42.676;23.320;2023-05-24T02:55:19;94524.09;;;11.60;100.00
38400;BME280;24180;42.676;23.320;2023-05-24T02:57:45;94509.41;;;11.35;100.00
38400;BME280;24180;42.676;23.320;2023-05-24T03:00:12;94526.53;;;11.53;100.00
38400;BME280;24180;42.676;23.320;2023-05-24T03:02:38;94543.53;;;11.56;100.00
38400;BME280;24180;42.676;23.320;2023-05-24T03:05:05;94534.31;;;11.53;100.00
38400;BME280;24180;42.676;23.320;2023-05-24T03:07:31;94538.22;;;11.57;100.00
38400;BME280;24180;42.676;23.320;2023-05-24T03:09:56;94505.84;;;11.36;100.00
38400;BME280;24180;42.676;23.320;2023-05-24T03:12:21;94523.97;;;11.36;100.00
38400;BME280;24180;42.676;23.320;2023-05-24T03:14:47;94559.09;;;11.56;100.00
38400;BME280;24180;42.676;23.320;2023-05-24T03:17:12;94521.19;;;11.29;100.00
38400;BME280;24180;42.676;23.320;2023-05-24T03:19:38;94543.34;;;11.49;100.00
38400;BME280;24180;42.676;23.320;2023-05-24T03:22:03;94497.38;;;11.25;100.00
38400;BME280;24180;42.676;23.320;2023-05-24T03:24:29;94494.59;;;11.19;100.00
38400;BME280;24180;42.676;23.320;2023-05-24T03:26:54;94556.34;;;11.57;100.00
38400;BME280;24180;42.676;23.320;2023-05-24T03:29:19;94533.06;;;11.40;100.00
38400;BME280;24180;42.676;23.320;2023-05-24T03:31:46;94575.31;;;11.58;100.00
38400;BME280;24180;42.676;23.320;2023-05-24T03:34:11;94543.22;;;11.51;100.00
38400;BME280;24180;42.676;23.320;2023-05-24T03:36:37;94549.44;;;11.66;100.00
38400;BME280;24180;42.676;23.320;2023-05-24T03:39:02;94563.28;;;11.75;100.00
38400;BME280;24180;42.676;23.320;2023-05-24T03:41:29;94579.34;;;11.78;100.00
38400;BME280;24180;42.676;23.320;2023-05-24T03:43:54;94561.44;;;11.67;100.00
38400;BME280;24180;42.676;23.320;2023-05-24T03:46:20;94508.28;;;11.37;100.00
38400;BME280;24180;42.676;23.320;2023-05-24T03:48:46;94569.97;;;11.85;100.00
38400;BME280;24180;42.676;23.320;2023-05-24T03:51:12;94570.63;;;11.79;100.00
38400;BME280;24180;42.676;23.320;2023-05-24T03:53:37;94530.94;;;11.61;100.00
38400;BME280;24180;42.676;23.320;2023-05-24T03:56:03;94576.16;;;11.92;100.00
38400;BME280;24180;42.676;23.320;2023-05-24T03:58:28;94570.19;;;12.00;100.00
38400;BME280;24180;42.676;23.320;2023-05-24T04:00:53;94564.47;;;11.88;100.00
38400;BME280;24180;42.676;23.320;2023-05-24T04:03:19;94567.31;;;12.03;100.00
38400;BME280;24180;42.676;23.320;2023-05-24T04:05:46;94577.38;;;12.06;100.00
38400;BME280;24180;42.676;23.320;2023-05-24T04:08:11;94553.63;;;11.93;100.00
38400;BME280;24180;42.676;23.320;2023-05-24T04:10:38;94564.88;;;12.09;100.00
38400;BME280;24180;42.676;23.320;2023-05-24T04:13:04;94545.69;;;11.94;100.00
38400;BME280;24180;42.676;23.320;2023-05-24T04:15:29;94537.44;;;11.99;100.00
38400;BME280;24180;42.676;23.320;2023-05-24T04:17:55;94550.91;;;12.02;100.00
38400;BME280;24180;42.676;23.320;2023-05-24T04:20:21;94566.81;;;11.99;100.00
38400;BME280;24180;42.676;23.320;2023-05-24T04:22:52;94552.84;;;12.00;100.00
38400;BME280;24180;42.676;23.320;2023-05-24T04:25:17;94565.88;;;12.16;100.00
38400;BME280;24180;42.676;23.320;2023-05-24T04:27:43;94525.94;;;12.01;100.00
38400;BME280;24180;42.676;23.320;2023-05-24T04:30:09;94581.34;;;12.34;100.00
38400;BME280;24180;42.676;23.320;2023-05-24T04:32:35;94552.91;;;12.25;100.00
38400;BME280;24180;42.676;23.320;2023-05-24T04:35:01;94547.94;;;12.31;100.00
38400;BME280;24180;42.676;23.320;2023-05-24T04:37:29;94570.81;;;12.52;100.00
38400;BME280;24180;42.676;23.320;2023-05-24T04:39:56;94556.53;;;12.48;100.00
38400;BME280;24180;42.676;23.320;2023-05-24T04:42:21;94580.75;;;12.64;100.00
38400;BME280;24180;42.676;23.320;2023-05-24T04:44:47;94575.75;;;12.63;100.00
38400;BME280;24180;42.676;23.320;2023-05-24T04:47:13;94579.13;;;12.55;100.00
38400;BME280;24180;42.676;23.320;2023-05-24T04:49:38;94609.34;;;12.81;100.00
38400;BME280;24180;42.676;23.320;2023-05-24T04:52:04;94585.16;;;12.80;100.00
38400;BME280;24180;42.676;23.320;2023-05-24T04:54:30;94611.16;;;12.96;100.00
38400;BME280;24180;42.676;23.320;2023-05-24T04:56:56;94559.81;;;12.66;100.00
38400;BME280;24180;42.676;23.320;2023-05-24T04:59:21;94582.41;;;12.82;100.00
38400;BME280;24180;42.676;23.320;2023-05-24T05:01:47;94620.00;;;13.11;100.00
38400;BME280;24180;42.676;23.320;2023-05-24T05:04:12;94592.16;;;12.96;100.00
38400;BME280;24180;42.676;23.320;2023-05-24T05:06:38;94605.97;;;13.04;100.00
38400;BME280;24180;42.676;23.320;2023-05-24T05:09:08;94624.69;;;13.24;100.00
38400;BME280;24180;42.676;23.320;2023-05-24T05:11:37;94629.88;;;13.40;100.00
38400;BME280;24180;42.676;23.320;2023-05-24T05:14:03;94600.31;;;13.17;100.00
38400;BME280;24180;42.676;23.320;2023-05-24T05:16:29;94624.53;;;13.42;100.00
38400;BME280;24180;42.676;23.320;2023-05-24T05:18:54;94635.41;;;13.62;100.00
38400;BME280;24180;42.676;23.320;2023-05-24T05:21:19;94595.59;;;13.45;100.00
38400;BME280;24180;42.676;23.320;2023-05-24T05:23:45;94576.09;;;13.33;100.00
38400;BME280;24180;42.676;23.320;2023-05-24T05:26:11;94630.31;;;13.76;100.00
38400;BME280;24180;42.676;23.320;2023-05-24T05:28:36;94605.13;;;13.69;100.00
38400;BME280;24180;42.676;23.320;2023-05-24T05:31:02;94639.91;;;14.00;100.00
38400;BME280;24180;42.676;23.320;2023-05-24T05:33:30;94611.13;;;13.85;100.00
38400;BME280;24180;42.676;23.320;2023-05-24T05:35:56;94602.66;;;13.91;100.00
38400;BME280;24180;42.676;23.320;2023-05-24T05:38:21;94626.84;;;14.16;100.00
38400;BME280;24180;42.676;23.320;2023-05-24T05:40:46;94607.13;;;14.14;100.00
38400;BME280;24180;42.676;23.320;2023-05-24T05:43:12;94638.13;;;14.47;100.00
38400;BME280;24180;42.676;23.320;2023-05-24T05:45:38;94613.91;;;14.39;100.00
38400;BME280;24180;42.676;23.320;2023-05-24T05:48:03;94639.84;;;14.63;100.00
38400;BME280;24180;42.676;23.320;2023-05-24T05:50:28;94648.03;;;14.83;100.00
38400;BME280;24180;42.676;23.320;2023-05-24T05:52:54;94634.69;;;14.78;100.00
38400;BME280;24180;42.676;23.320;2023-05-24T05:55:20;94623.91;;;14.81;100.00
38400;BME280;24180;42.676;23.320;2023-05-24T05:57:45;94644.81;;;15.04;100.00
38400;BME280;24180;42.676;23.320;2023-05-24T06:00:11;94636.19;;;15.03;100.00
38400;BME280;24180;42.676;23.320;2023-05-24T06:02:36;94649.34;;;15.32;100.00
38400;BME280;24180;42.676;23.320;2023-05-24T06:05:02;94638.28;;;15.45;100.00
38400;BME280;24180;42.676;23.320;2023-05-24T06:07:27;94656.91;;;15.65;100.00
38400;BME280;24180;42.676;23.320;2023-05-24T06:09:53;94668.31;;;15.86;100.00
38400;BME280;24180;42.676;23.320;2023-05-24T06:12:18;94634.28;;;15.95;100.00
38400;BME280;24180;42.676;23.320;2023-05-24T06:14:44;94658.44;;;16.26;100.00
38400;BME280;24180;42.676;23.320;2023-05-24T06:17:09;94611.50;;;16.03;100.00
38400;BME280;24180;42.676;23.320;2023-05-24T06:19:35;94653.78;;;16.36;100.00
38400;BME280;24180;42.676;23.320;2023-05-24T06:22:00;94666.13;;;16.57;100.00
38400;BME280;24180;42.676;23.320;2023-05-24T06:24:26;94656.19;;;16.67;100.00
38400;BME280;24180;42.676;23.320;2023-05-24T06:26:53;94655.66;;;16.71;100.00
38400;BME280;24180;42.676;23.320;2023-05-24T06:29:18;94652.22;;;16.71;100.00
38400;BME280;24180;42.676;23.320;2023-05-24T06:31:46;94659.84;;;16.87;100.00
38400;BME280;24180;42.676;23.320;2023-05-24T06:34:12;94651.72;;;16.97;100.00
38400;BME280;24180;42.676;23.320;2023-05-24T06:36:41;94609.91;;;16.82;100.00
38400;BME280;24180;42.676;23.320;2023-05-24T06:39:11;94662.81;;;17.20;100.00
38400;BME280;24180;42.676;23.320;2023-05-24T06:41:37;94629.66;;;17.06;100.00
38400;BME280;24180;42.676;23.320;2023-05-24T06:44:03;94659.84;;;17.44;100.00
38400;BME280;24180;42.676;23.320;2023-05-24T06:46:29;94654.28;;;17.54;100.00
38400;BME280;24180;42.676;23.320;2023-05-24T06:48:54;94663.28;;;17.66;100.00
38400;BME280;24180;42.676;23.320;2023-05-24T06:51:20;94629.44;;;17.64;100.00
38400;BME280;24180;42.676;23.320;2023-05-24T06:53:46;94647.63;;;17.72;100.00
38400;BME280;24180;42.676;23.320;2023-05-24T06:56:11;94632.28;;;17.69;100.00
38400;BME280;24180;42.676;23.320;2023-05-24T06:58:37;94649.84;;;17.97;100.00
38400;BME280;24180;42.676;23.320;2023-05-24T07:01:02;94630.28;;;17.99;100.00
38400;BME280;24180;42.676;23.320;2023-05-24T07:03:32;94626.16;;;18.18;100.00
38400;BME280;24180;42.676;23.320;2023-05-24T07:05:57;94615.31;;;18.21;100.00
38400;BME280;24180;42.676;23.320;2023-05-24T07:08:26;94644.53;;;18.52;100.00
38400;BME280;24180;42.676;23.320;2023-05-24T07:10:52;94623.97;;;18.56;100.00
38400;BME280;24180;42.676;23.320;2023-05-24T07:13:18;94647.91;;;18.87;100.00
38400;BME280;24180;42.676;23.320;2023-05-24T07:15:45;94648.38;;;18.97;100.00
38400;BME280;24180;42.676;23.320;2023-05-24T07:18:13;94654.03;;;19.01;100.00
38400;BME280;24180;42.676;23.320;2023-05-24T07:20:39;94646.78;;;19.09;100.00
38400;BME280;24180;42.676;23.320;2023-05-24T07:23:05;94648.81;;;19.21;100.00
38400;BME280;24180;42.676;23.320;2023-05-24T07:25:31;94643.59;;;19.34;100.00
38400;BME280;24180;42.676;23.320;2023-05-24T07:27:57;94654.38;;;19.45;100.00
38400;BME280;24180;42.676;23.320;2023-05-24T07:30:23;94638.59;;;19.45;100.00
38400;BME280;24180;42.676;23.320;2023-05-24T07:32:48;94620.59;;;19.42;100.00
38400;BME280;24180;42.676;23.320;2023-05-24T07:35:14;94629.50;;;19.54;100.00
38400;BME280;24180;42.676;23.320;2023-05-24T07:37:40;94663.66;;;19.87;100.00
38400;BME280;24180;42.676;23.320;2023-05-24T07:40:07;94664.69;;;19.93;100.00
38400;BME280;24180;42.676;23.320;2023-05-24T07:42:36;94661.03;;;19.87;100.00
38400;BME280;24180;42.676;23.320;2023-05-24T07:45:01;94657.41;;;20.01;100.00
38400;BME280;24180;42.676;23.320;2023-05-24T07:47:27;94663.06;;;20.12;100.00
38400;BME280;24180;42.676;23.320;2023-05-24T07:49:53;94645.84;;;20.22;100.00
38400;BME280;24180;42.676;23.320;2023-05-24T07:52:19;94640.81;;;20.21;100.00
38400;BME280;24180;42.676;23.320;2023-05-24T07:54:44;94651.91;;;20.42;100.00
38400;BME280;24180;42.676;23.320;2023-05-24T07:57:10;94615.09;;;20.36;100.00
38400;BME280;24180;42.676;23.320;2023-05-24T07:59:36;94650.81;;;20.70;100.00
38400;BME280;24180;42.676;23.320;2023-05-24T08:02:02;94621.91;;;20.57;100.00
38400;BME280;24180;42.676;23.320;2023-05-24T08:04:32;94640.84;;;20.78;100.00
38400;BME280;24180;42.676;23.320;2023-05-24T08:06:58;94644.53;;;20.77;100.00
38400;BME280;24180;42.676;23.320;2023-05-24T08:09:26;94645.69;;;20.88;100.00
38400;BME280;24180;42.676;23.320;2023-05-24T08:11:52;94643.47;;;20.85;100.00
38400;BME280;24180;42.676;23.320;2023-05-24T08:14:17;94642.19;;;21.00;100.00
38400;BME280;24180;42.676;23.320;2023-05-24T08:16:43;94623.56;;;20.95;99.22
38400;BME280;24180;42.676;23.320;2023-05-24T08:19:08;94621.94;;;21.01;92.28
38400;BME280;24180;42.676;23.320;2023-05-24T08:21:34;94631.28;;;21.35;89.38
38400;BME280;24180;42.676;23.320;2023-05-24T08:23:59;94612.69;;;21.55;84.05
38400;BME280;24180;42.676;23.320;2023-05-24T08:26:25;94636.06;;;21.76;87.62
38400;BME280;24180;42.676;23.320;2023-05-24T08:28:51;94618.25;;;21.71;79.17
38400;BME280;24180;42.676;23.320;2023-05-24T08:31:16;94646.94;;;21.86;82.33
38400;BME280;24180;42.676;23.320;2023-05-24T08:33:42;94643.78;;;21.71;82.10
38400;BME280;24180;42.676;23.320;2023-05-24T08:36:08;94613.84;;;21.65;83.80
38400;BME280;24180;42.676;23.320;2023-05-24T08:38:34;94590.72;;;21.67;79.64
38400;BME280;24180;42.676;23.320;2023-05-24T08:41:00;94611.09;;;22.03;82.09
38400;BME280;24180;42.676;23.320;2023-05-24T08:43:29;94632.22;;;22.46;78.65
38400;BME280;24180;42.676;23.320;2023-05-24T08:45:56;94606.13;;;22.38;71.09
38400;BME280;24180;42.676;23.320;2023-05-24T08:48:24;94621.41;;;22.48;70.68
38400;BME280;24180;42.676;23.320;2023-05-24T08:50:49;94623.81;;;22.31;72.76
38400;BME280;24180;42.676;23.320;2023-05-24T08:53:17;94605.66;;;22.23;74.51
38400;BME280;24180;42.676;23.320;2023-05-24T08:55:43;94626.28;;;22.51;71.17
38400;BME280;24180;42.676;23.320;2023-05-24T08:58:10;94634.19;;;22.51;69.24
38400;BME280;24180;42.676;23.320;2023-05-24T09:00:35;94629.75;;;22.69;69.58
38400;BME280;24180;42.676;23.320;2023-05-24T09:03:01;94609.84;;;22.49;69.29
38400;BME280;24180;42.676;23.320;2023-05-24T09:05:28;94626.97;;;22.82;69.53
38400;BME280;24180;42.676;23.320;2023-05-24T09:07:54;94631.19;;;23.02;71.91
38400;BME280;24180;42.676;23.320;2023-05-24T09:10:21;94595.41;;;22.88;70.53
38400;BME280;24180;42.676;23.320;2023-05-24T09:12:55;94596.81;;;22.90;67.37
38400;BME280;24180;42.676;23.320;2023-05-24T09:15:21;94626.91;;;23.19;67.23
38400;BME280;24180;42.676;23.320;2023-05-24T09:17:47;94621.94;;;23.11;62.45
38400;BME280;24180;42.676;23.320;2023-05-24T09:20:12;94603.78;;;23.14;65.38
38400;BME280;24180;42.676;23.320;2023-05-24T09:22:40;94598.41;;;23.21;58.43
38400;BME280;24180;42.676;23.320;2023-05-24T09:25:06;94626.09;;;23.48;52.73
38400;BME280;24180;42.676;23.320;2023-05-24T09:27:33;94633.81;;;23.50;50.48
38400;BME280;24180;42.676;23.320;2023-05-24T09:29:59;94624.16;;;23.55;52.73
38400;BME280;24180;42.676;23.320;2023-05-24T09:32:26;94621.16;;;23.52;51.02
38400;BME280;24180;42.676;23.320;2023-05-24T09:34:54;94626.72;;;23.73;55.74
38400;BME280;24180;42.676;23.320;2023-05-24T09:37:21;94589.38;;;23.70;54.08
38400;BME280;24180;42.676;23.320;2023-05-24T09:39:48;94615.22;;;23.79;51.14
38400;BME280;24180;42.676;23.320;2023-05-24T09:42:18;94618.91;;;23.67;50.64
38400;BME280;24180;42.676;23.320;2023-05-24T09:44:47;94626.25;;;23.65;50.53
38400;BME280;24180;42.676;23.320;2023-05-24T09:47:13;94614.19;;;23.69;51.20
38400;BME280;24180;42.676;23.320;2023-05-24T09:49:39;94587.84;;;23.51;50.29
38400;BME280;24180;42.676;23.320;2023-05-24T09:52:05;94612.00;;;23.66;49.53
38400;BME280;24180;42.676;23.320;2023-05-24T09:54:31;94588.56;;;23.69;53.24
38400;BME280;24180;42.676;23.320;2023-05-24T09:57:04;94617.78;;;24.09;48.09
38400;BME280;24180;42.676;23.320;2023-05-24T09:59:31;94615.16;;;24.33;49.87
38400;BME280;24180;42.676;23.320;2023-05-24T10:02:06;94623.00;;;24.51;45.07
38400;BME280;24180;42.676;23.320;2023-05-24T10:04:35;94618.72;;;24.61;43.15
38400;BME280;24180;42.676;23.320;2023-05-24T10:07:01;94589.19;;;24.81;45.88
38400;BME280;24180;42.676;23.320;2023-05-24T10:09:28;94606.38;;;25.19;42.11
38400;BME280;24180;42.676;23.320;2023-05-24T10:12:00;94602.13;;;25.63;41.69
38400;BME280;24180;42.676;23.320;2023-05-24T10:14:30;94593.38;;;26.29;39.66
38400;BME280;24180;42.676;23.320;2023-05-24T10:16:55;94607.94;;;28.15;36.11
38400;BME280;24180;42.676;23.320;2023-05-24T10:19:21;94575.47;;;30.64;33.33
38400;BME280;24180;42.676;23.320;2023-05-24T10:21:48;94583.81;;;33.10;29.16
38400;BME280;24180;42.676;23.320;2023-05-24T10:24:18;94580.72;;;34.88;26.79
38400;BME280;24180;42.676;23.320;2023-05-24T10:26:48;94599.88;;;36.44;24.31
38400;BME280;24180;42.676;23.320;2023-05-24T10:29:49;94595.38;;;36.92;23.49
38400;BME280;24180;42.676;23.320;2023-05-24T10:32:17;94590.50;;;37.85;22.61
38400;BME280;24180;42.676;23.320;2023-05-24T10:34:44;94563.97;;;37.87;22.67
38400;BME280;24180;42.676;23.320;2023-05-24T10:37:11;94571.44;;;37.73;21.58
38400;BME280;24180;42.676;23.320;2023-05-24T10:39:36;94576.47;;;36.92;21.72
38400;BME280;24180;42.676;23.320;2023-05-24T10:42:03;94555.38;;;37.85;20.77
38400;BME280;24180;42.676;23.320;2023-05-24T10:44:29;94579.63;;;38.54;20.31
38400;BME280;24180;42.676;23.320;2023-05-24T10:47:14;94566.06;;;39.59;19.58
38400;BME280;24180;42.676;23.320;2023-05-24T10:49:52;94563.41;;;38.92;20.48
38400;BME280;24180;42.676;23.320;2023-05-24T10:52:19;94566.84;;;38.72;20.80
38400;BME280;24180;42.676;23.320;2023-05-24T10:55:02;94554.84;;;38.35;21.11
38400;BME280;24180;42.676;23.320;2023-05-24T10:57:29;94553.50;;;39.55;20.52
38400;BME280;24180;42.676;23.320;2023-05-24T10:59:57;94538.47;;;39.16;20.25
38400;BME280;24180;42.676;23.320;2023-05-24T11:02:26;94558.00;;;39.21;20.12
38400;BME280;24180;42.676;23.320;2023-05-24T11:04:52;94546.97;;;39.56;19.96
38400;BME280;24180;42.676;23.320;2023-05-24T11:07:18;94554.06;;;40.22;19.05
38400;BME280;24180;42.676;23.320;2023-05-24T11:09:46;94526.59;;;39.70;19.07
38400;BME280;24180;42.676;23.320;2023-05-24T11:12:18;94537.28;;;40.53;19.20
38400;BME280;24180;42.676;23.320;2023-05-24T11:14:51;94534.66;;;41.66;18.56
38400;BME280;24180;42.676;23.320;2023-05-24T11:17:21;94528.00;;;42.03;18.56
38400;BME280;24180;42.676;23.320;2023-05-24T11:19:52;94558.16;;;41.46;17.83
38400;BME280;24180;42.676;23.320;2023-05-24T11:22:23;94555.91;;;40.88;18.89
38400;BME280;24180;42.676;23.320;2023-05-24T11:24:50;94549.81;;;41.79;18.99
38400;BME280;24180;42.676;23.320;2023-05-24T11:27:17;94549.06;;;42.07;17.96
38400;BME280;24180;42.676;23.320;2023-05-24T11:29:44;94527.94;;;41.36;18.02
38400;BME280;24180;42.676;23.320;2023-05-24T11:32:14;94522.44;;;42.00;17.50
38400;BME280;24180;42.676;23.320;2023-05-24T11:34:40;94530.66;;;43.06;16.57
38400;BME280;24180;42.676;23.320;2023-05-24T11:37:06;94515.25;;;43.29;16.27
38400;BME280;24180;42.676;23.320;2023-05-24T11:39:33;94529.44;;;43.38;16.87
38400;BME280;24180;42.676;23.320;2023-05-24T11:41:59;94533.81;;;42.92;15.79
38400;BME280;24180;42.676;23.320;2023-05-24T11:44:28;94527.16;;;41.23;17.04
38400;BME280;24180;42.676;23.320;2023-05-24T11:47:01;94539.84;;;41.19;17.59
38400;BME280;24180;42.676;23.320;2023-05-24T11:49:27;94506.78;;;41.05;17.66
38400;BME280;24180;42.676;23.320;2023-05-24T11:51:54;94511.84;;;41.31;18.14
38400;BME280;24180;42.676;23.320;2023-05-24T11:54:21;94526.13;;;41.92;17.27
38400;BME280;24180;42.676;23.320;2023-05-24T11:56:47;94517.09;;;42.94;16.82
38400;BME280;24180;42.676;23.320;2023-05-24T11:59:14;94495.78;;;43.31;16.33
38400;BME280;24180;42.676;23.320;2023-05-24T12:01:40;94519.97;;;43.32;17.31
38400;BME280;24180;42.676;23.320;2023-05-24T12:04:06;94511.84;;;43.01;16.37
38400;BME280;24180;42.676;23.320;2023-05-24T12:06:37;94521.50;;;43.84;15.97
38400;BME280;24180;42.676;23.320;2023-05-24T12:09:03;94494.00;;;45.03;15.72
38400;BME280;24180;42.676;23.320;2023-05-24T12:11:39;94526.09;;;43.99;15.18
38400;BME280;24180;42.676;23.320;2023-05-24T12:14:06;94518.44;;;44.69;15.40
38400;BME280;24180;42.676;23.320;2023-05-24T12:16:32;94478.97;;;44.02;15.39
38400;BME280;24180;42.676;23.320;2023-05-24T12:18:58;94516.50;;;42.10;15.84
38400;BME280;24180;42.676;23.320;2023-05-24T12:21:24;94484.03;;;40.73;16.35
38400;BME280;24180;42.676;23.320;2023-05-24T12:23:50;94446.94;;;40.65;17.21
38400;BME280;24180;42.676;23.320;2023-05-24T12:26:17;94486.75;;;41.62;16.70
38400;BME280;24180;42.676;23.320;2023-05-24T12:28:44;94499.47;;;42.72;16.93
38400;BME280;24180;42.676;23.320;2023-05-24T12:31:12;94477.59;;;41.94;16.51
38400;BME280;24180;42.676;23.320;2023-05-24T12:33:38;94477.09;;;41.48;17.17
38400;BME280;24180;42.676;23.320;2023-05-24T12:36:04;94486.13;;;41.80;17.30
38400;BME280;24180;42.676;23.320;2023-05-24T12:38:30;94484.88;;;41.78;17.22
38400;BME280;24180;42.676;23.320;2023-05-24T12:40:56;94476.09;;;42.56;16.98
38400;BME280;24180;42.676;23.320;2023-05-24T12:43:21;94480.50;;;43.26;16.98
38400;BME280;24180;42.676;23.320;2023-05-24T12:45:47;94463.66;;;42.11;17.81
38400;BME280;24180;42.676;23.320;2023-05-24T12:48:12;94479.03;;;40.39;18.48
38400;BME280;24180;42.676;23.320;2023-05-24T12:50:37;94452.03;;;37.20;21.07
38400;BME280;24180;42.676;23.320;2023-05-24T12:53:04;94483.50;;;35.66;22.88